x

Ilm2 - 5 Miles Se Of Wrightsville Beach, Nc (41038) Weather Station

11:08 - Sun 28th Aug 2016 All times are EDT. -4 hours from GMT.

  • Wind
    13mph, 18mph gusts
  • Sea Temp 83°f
  • Aire Temp 81°f
  • Sea Pressure 1021.4mb
  • Ilm2 - 5 Miles Se Of Wrightsville Beach, Nc
  • Ilm2 - 5 Miles Se Of Wrightsville Beach, Nc

More Historic Weather Station data

Upgrade to MSW Pro to gain access to the past 30 days of data for over 8000 Wavebouys and Weather Stations around the globe.

Join Pro

Comparision Forecast

View Surf forecast
   
dom 08/28 11:08 13 18 mph 1021.4mb 83f 81f
10:08 16 20 mph 1021.1mb 83f 80f
9:08 13 20 mph 1020.8mb 83f 80f
8:08 13 20 mph 1020.5mb 83f 80f
7:08 16 20 mph 1019.9mb 83f 80f
6:08 16 20 mph 1019.7mb 83f 80f
5:08 16 22 mph 1019.5mb 83f 81f
2:08 7 9 mph 1020.1mb 84f 82f
1:08 7 11 mph 1020.5mb 84f 83f
12:08 4 7 mph 1020.8mb 84f 83f
sáb 08/27 11:08 7 11 mph 1020.6mb 84f 83f
10:08 4 7 mph 1020.8mb 84f 83f
9:08 7 9 mph 1020.3mb 84f 83f
8:08 4 9 mph 1018.9mb 84f 83f
7:08 7 11 mph 1018.2mb 84f 83f
6:08 9 13 mph 1018.4mb 84f 84f
5:08 9 13 mph 1018.7mb 84f 83f
4:08 7 11 mph 1019.2mb 85f 83f
3:08 7 11 mph 1019.6mb 85f 83f
2:08 7 9 mph 1020.2mb 85f 83f
1:08 4 9 mph 1020.4mb 84f 83f
12:08 4 9 mph 1021mb 84f 82f
11:08 7 11 mph 1020.9mb 83f 82f
10:08 7 9 mph 1020.8mb 83f 81f
9:08 7 11 mph 1020.4mb 83f 81f
8:08 9 11 mph 1020.2mb 83f 80f
7:08 9 11 mph 1020mb 83f 80f
6:08 2 4 mph 1019.5mb 83f 81f
5:08 2 7 mph 1019.5mb 83f 81f
4:08 2 7 mph 1019.6mb 83f 82f
3:08 4 7 mph 1019.7mb 83f 82f
2:08 4 9 mph 1019.8mb 83f 82f
1:08 7 9 mph 1019.7mb 83f 82f
12:08 7 11 mph 1019.6mb 83f 82f
vie 08/26 11:08 9 11 mph 1019.6mb 83f 82f
10:08 9 13 mph 1019.1mb 83f 82f
9:08 9 13 mph 1019mb 84f 82f
8:08 7 9 mph 1018.6mb 84f 82f
7:08 7 9 mph 1018.5mb 84f 83f
6:08 7 11 mph 1018.3mb 85f 83f
5:08 4 9 mph 1018.6mb 85f 83f
4:08 4 9 mph 1019.1mb 85f 83f
3:08 7 9 mph 1019.6mb 84f 83f
2:08 7 9 mph 1020.3mb 84f 83f
1:08 4 7 mph 1020.5mb 83f 82f
12:08 2 7 mph 1020.9mb 83f 83f
11:08 2 4 mph 1021.1mb 83f 82f
10:08 2 4 mph 1020.9mb 83f 82f
9:08 2 7 mph 1020.7mb 83f 81f
8:08 2 7 mph 1020.7mb 82f 81f
6:08 4 7 mph 1020mb 83f 80f
5:08 2 4 mph 1019.6mb 83f 81f
4:08 2 4 mph 1019.7mb 83f 81f
3:08 4 9 mph 1019.8mb 83f 81f
2:08 4 9 mph 1019.7mb 83f 81f
1:08 7 9 mph 1019.8mb 83f 82f
12:08 7 9 mph 1019.9mb 83f 82f
jue 08/25 11:08 7 11 mph 1019.9mb 83f 82f
10:08 7 11 mph 1020.1mb 83f 82f
9:08 9 13 mph 1020.2mb 83f 82f
8:08 7 9 mph 1020mb 83f 82f
6:08 9 11 mph 1019.7mb 83f 83f
5:08 11 13 mph 1019.9mb 83f 83f
4:08 11 16 mph 1020.1mb 83f 82f
3:08 11 16 mph 1020.7mb 83f 82f
2:08 11 16 mph 1021.4mb 83f 82f
1:08 9 13 mph 1022mb 83f 82f
12:08 7 11 mph 1022.7mb 83f 82f
11:08 9 13 mph 1022.9mb 82f 82f
10:08 9 16 mph 1022.7mb 82f 81f
9:08 11 13 mph 1022.5mb 82f 80f
8:08 9 11 mph 1022mb 82f 80f
7:08 7 11 mph 1021.7mb 82f 81f
6:08 7 11 mph 1021.4mb 82f 81f
5:08 9 13 mph 1021mb 82f 81f
4:08 11 16 mph 1021.2mb 83f 81f
3:08 11 16 mph 1021.3mb 83f 82f
2:08 9 11 mph 1021.8mb 83f 82f
1:08 13 18 mph 1022.1mb 83f 82f
12:08 11 18 mph 1022.7mb 83f 81f
mié 08/24 11:08 13 18 mph 1023mb 83f 81f
10:08 13 20 mph 1023.4mb 83f 81f
9:08 13 18 mph 1023mb 83f 81f
8:08 9 11 mph 1023mb 83f 81f
7:08 9 11 mph 1023mb 83f 82f
6:08 7 11 mph 1023.1mb 83f 82f
5:08 11 16 mph 1023.2mb 83f 81f